sensor_id;sensor_type;location;lat;lon;timestamp;temperature;humidity
72380;SHT30;60354;47.798;12.472;2023-05-19T00:01:07;9.82;86.44
72380;SHT30;60354;47.798;12.472;2023-05-19T00:03:34;9.75;87.10
72380;SHT30;60354;47.798;12.472;2023-05-19T00:06:05;9.74;87.39
72380;SHT30;60354;47.798;12.472;2023-05-19T00:08:33;9.74;87.06
72380;SHT30;60354;47.798;12.472;2023-05-19T00:10:59;9.66;87.42
72380;SHT30;60354;47.798;12.472;2023-05-19T00:13:26;9.65;87.12
72380;SHT30;60354;47.798;12.472;2023-05-19T00:15:52;9.65;86.77
72380;SHT30;60354;47.798;12.472;2023-05-19T00:18:17;9.62;86.84
72380;SHT30;60354;47.798;12.472;2023-05-19T00:20:43;9.69;86.59
72380;SHT30;60354;47.798;12.472;2023-05-19T00:23:09;9.66;86.73
72380;SHT30;60354;47.798;12.472;2023-05-19T00:25:35;9.71;86.69
72380;SHT30;60354;47.798;12.472;2023-05-19T00:28:01;9.68;87.05
72380;SHT30;60354;47.798;12.472;2023-05-19T00:30:28;9.69;86.65
72380;SHT30;60354;47.798;12.472;2023-05-19T00:32:54;9.61;86.39
72380;SHT30;60354;47.798;12.472;2023-05-19T00:35:19;9.61;86.22
72380;SHT30;60354;47.798;12.472;2023-05-19T00:37:46;9.56;86.49
72380;SHT30;60354;47.798;12.472;2023-05-19T00:40:11;9.54;86.51
72380;SHT30;60354;47.798;12.472;2023-05-19T00:42:37;9.45;87.38
72380;SHT30;60354;47.798;12.472;2023-05-19T00:45:03;9.36;87.36
72380;SHT30;60354;47.798;12.472;2023-05-19T00:47:29;9.20;87.43
72380;SHT30;60354;47.798;12.472;2023-05-19T00:49:55;9.30;87.65
72380;SHT30;60354;47.798;12.472;2023-05-19T00:52:20;9.31;87.40
72380;SHT30;60354;47.798;12.472;2023-05-19T00:54:46;9.34;87.11
72380;SHT30;60354;47.798;12.472;2023-05-19T00:57:12;9.38;87.01
72380;SHT30;60354;47.798;12.472;2023-05-19T00:59:38;9.32;87.26
72380;SHT30;60354;47.798;12.472;2023-05-19T01:02:04;9.39;87.01
72380;SHT30;60354;47.798;12.472;2023-05-19T01:04:30;9.45;86.87
72380;SHT30;60354;47.798;12.472;2023-05-19T01:06:59;9.45;86.74
72380;SHT30;60354;47.798;12.472;2023-05-19T01:09:25;9.34;87.02
72380;SHT30;60354;47.798;12.472;2023-05-19T01:11:51;9.34;87.37
72380;SHT30;60354;47.798;12.472;2023-05-19T01:14:18;9.36;87.22
72380;SHT30;60354;47.798;12.472;2023-05-19T01:22:37;9.51;86.79
72380;SHT30;60354;47.798;12.472;2023-05-19T01:30:42;9.13;88.26
72380;SHT30;60354;47.798;12.472;2023-05-19T01:33:13;8.97;88.89
72380;SHT30;60354;47.798;12.472;2023-05-19T01:35:41;8.97;89.21
72380;SHT30;60354;47.798;12.472;2023-05-19T01:38:08;8.90;88.60
72380;SHT30;60354;47.798;12.472;2023-05-19T01:40:36;8.90;88.73
72380;SHT30;60354;47.798;12.472;2023-05-19T01:43:02;8.94;88.38
72380;SHT30;60354;47.798;12.472;2023-05-19T01:45:30;9.04;88.29
72380;SHT30;60354;47.798;12.472;2023-05-19T01:47:58;8.99;88.15
72380;SHT30;60354;47.798;12.472;2023-05-19T01:50:24;9.04;88.06
72380;SHT30;60354;47.798;12.472;2023-05-19T01:52:50;9.11;87.59
72380;SHT30;60354;47.798;12.472;2023-05-19T01:55:16;9.03;87.36
72380;SHT30;60354;47.798;12.472;2023-05-19T02:06:02;9.03;87.67
72380;SHT30;60354;47.798;12.472;2023-05-19T02:11:06;8.96;87.75
72380;SHT30;60354;47.798;12.472;2023-05-19T02:13:37;8.99;87.62
72380;SHT30;60354;47.798;12.472;2023-05-19T02:16:06;9.03;87.36
72380;SHT30;60354;47.798;12.472;2023-05-19T02:18:32;8.99;87.08
72380;SHT30;60354;47.798;12.472;2023-05-19T02:20:58;9.03;87.54
72380;SHT30;60354;47.798;12.472;2023-05-19T02:23:24;9.00;87.65
72380;SHT30;60354;47.798;12.472;2023-05-19T02:25:49;8.79;88.60
72380;SHT30;60354;47.798;12.472;2023-05-19T02:28:15;8.74;89.23
72380;SHT30;60354;47.798;12.472;2023-05-19T02:30:40;8.70;89.17
72380;SHT30;60354;47.798;12.472;2023-05-19T02:33:06;8.67;89.20
72380;SHT30;60354;47.798;12.472;2023-05-19T02:35:31;8.64;88.59
72380;SHT30;60354;47.798;12.472;2023-05-19T02:37:58;8.79;87.98
72380;SHT30;60354;47.798;12.472;2023-05-19T02:40:23;8.81;87.83
72380;SHT30;60354;47.798;12.472;2023-05-19T02:42:49;8.66;87.93
72380;SHT30;60354;47.798;12.472;2023-05-19T02:45:15;8.57;87.93
72380;SHT30;60354;47.798;12.472;2023-05-19T02:47:40;8.55;88.70
72380;SHT30;60354;47.798;12.472;2023-05-19T02:50:07;8.45;88.27
72380;SHT30;60354;47.798;12.472;2023-05-19T02:52:32;8.32;88.29
72380;SHT30;60354;47.798;12.472;2023-05-19T02:54:58;8.29;88.67
72380;SHT30;60354;47.798;12.472;2023-05-19T02:57:24;8.25;88.64
72380;SHT30;60354;47.798;12.472;2023-05-19T02:59:51;8.21;88.66
72380;SHT30;60354;47.798;12.472;2023-05-19T03:02:16;8.20;88.82
72380;SHT30;60354;47.798;12.472;2023-05-19T03:04:42;8.20;89.14
72380;SHT30;60354;47.798;12.472;2023-05-19T03:07:08;8.14;88.81
72380;SHT30;60354;47.798;12.472;2023-05-19T03:09:38;8.18;88.93
72380;SHT30;60354;47.798;12.472;2023-05-19T03:12:04;8.14;88.71
72380;SHT30;60354;47.798;12.472;2023-05-19T03:14:32;8.15;88.64
72380;SHT30;60354;47.798;12.472;2023-05-19T03:16:58;8.12;88.14
72380;SHT30;60354;47.798;12.472;2023-05-19T03:19:25;8.12;87.55
72380;SHT30;60354;47.798;12.472;2023-05-19T03:21:51;8.01;87.44
72380;SHT30;60354;47.798;12.472;2023-05-19T03:24:16;8.08;87.54
72380;SHT30;60354;47.798;12.472;2023-05-19T03:26:42;8.15;86.77
72380;SHT30;60354;47.798;12.472;2023-05-19T03:29:08;8.06;87.66
72380;SHT30;60354;47.798;12.472;2023-05-19T03:31:35;8.02;88.38
72380;SHT30;60354;47.798;12.472;2023-05-19T03:34:02;8.02;89.40
72380;SHT30;60354;47.798;12.472;2023-05-19T03:36:27;7.99;88.90
72380;SHT30;60354;47.798;12.472;2023-05-19T03:39:04;7.84;88.58
72380;SHT30;60354;47.798;12.472;2023-05-19T03:41:30;7.91;87.99
72380;SHT30;60354;47.798;12.472;2023-05-19T03:43:56;7.98;87.09
72380;SHT30;60354;47.798;12.472;2023-05-19T03:46:21;7.94;87.13
72380;SHT30;60354;47.798;12.472;2023-05-19T03:48:50;7.85;87.03
72380;SHT30;60354;47.798;12.472;2023-05-19T03:51:47;7.85;87.56
72380;SHT30;60354;47.798;12.472;2023-05-19T03:54:26;7.74;87.62
72380;SHT30;60354;47.798;12.472;2023-05-19T03:56:52;7.78;89.40
72380;SHT30;60354;47.798;12.472;2023-05-19T03:59:17;7.77;88.91
72380;SHT30;60354;47.798;12.472;2023-05-19T04:01:43;7.84;88.43
72380;SHT30;60354;47.798;12.472;2023-05-19T04:04:08;7.73;89.53
72380;SHT30;60354;47.798;12.472;2023-05-19T04:06:34;7.73;88.51
72380;SHT30;60354;47.798;12.472;2023-05-19T04:09:01;7.91;87.59
72380;SHT30;60354;47.798;12.472;2023-05-19T04:11:28;7.93;87.68
72380;SHT30;60354;47.798;12.472;2023-05-19T04:13:54;8.02;87.86
72380;SHT30;60354;47.798;12.472;2023-05-19T04:16:19;8.12;87.43
72380;SHT30;60354;47.798;12.472;2023-05-19T04:18:46;8.25;87.42
72380;SHT30;60354;47.798;12.472;2023-05-19T04:21:11;8.31;87.23
72380;SHT30;60354;47.798;12.472;2023-05-19T04:23:37;8.36;87.11
72380;SHT30;60354;47.798;12.472;2023-05-19T04:26:03;8.36;87.33
72380;SHT30;60354;47.798;12.472;2023-05-19T04:28:31;8.41;87.49
72380;SHT30;60354;47.798;12.472;2023-05-19T04:30:58;8.46;87.57
72380;SHT30;60354;47.798;12.472;2023-05-19T04:33:24;8.43;89.12
72380;SHT30;60354;47.798;12.472;2023-05-19T04:35:50;8.48;89.01
72380;SHT30;60354;47.798;12.472;2023-05-19T04:38:16;8.56;88.31
72380;SHT30;60354;47.798;12.472;2023-05-19T04:40:45;8.63;88.42
72380;SHT30;60354;47.798;12.472;2023-05-19T04:43:14;8.66;88.39
72380;SHT30;60354;47.798;12.472;2023-05-19T04:45:40;8.74;88.27
72380;SHT30;60354;47.798;12.472;2023-05-19T04:48:08;8.77;88.60
72380;SHT30;60354;47.798;12.472;2023-05-19T04:50:33;8.76;88.14
72380;SHT30;60354;47.798;12.472;2023-05-19T04:53:03;8.84;88.32
72380;SHT30;60354;47.798;12.472;2023-05-19T04:55:28;8.91;88.38
72380;SHT30;60354;47.798;12.472;2023-05-19T04:57:54;8.88;89.12
72380;SHT30;60354;47.798;12.472;2023-05-19T05:00:21;8.80;89.54
72380;SHT30;60354;47.798;12.472;2023-05-19T05:02:57;8.73;89.99
72380;SHT30;60354;47.798;12.472;2023-05-19T05:05:22;8.70;90.22
72380;SHT30;60354;47.798;12.472;2023-05-19T05:07:49;8.72;90.11
72380;SHT30;60354;47.798;12.472;2023-05-19T05:10:15;8.72;90.45
72380;SHT30;60354;47.798;12.472;2023-05-19T05:12:41;8.77;90.64
72380;SHT30;60354;47.798;12.472;2023-05-19T05:15:07;8.83;89.84
72380;SHT30;60354;47.798;12.472;2023-05-19T05:17:33;8.94;89.68
72380;SHT30;60354;47.798;12.472;2023-05-19T05:20:01;8.99;89.99
72380;SHT30;60354;47.798;12.472;2023-05-19T05:22:29;9.08;89.28
72380;SHT30;60354;47.798;12.472;2023-05-19T05:24:55;9.27;88.78
72380;SHT30;60354;47.798;12.472;2023-05-19T05:27:20;9.54;87.87
72380;SHT30;60354;47.798;12.472;2023-05-19T05:29:46;9.90;86.47
72380;SHT30;60354;47.798;12.472;2023-05-19T05:32:11;10.03;85.43
72380;SHT30;60354;47.798;12.472;2023-05-19T05:34:37;10.29;84.11
72380;SHT30;60354;47.798;12.472;2023-05-19T05:37:04;10.44;83.85
72380;SHT30;60354;47.798;12.472;2023-05-19T05:39:31;10.54;83.31
72380;SHT30;60354;47.798;12.472;2023-05-19T05:41:56;10.45;82.80
72380;SHT30;60354;47.798;12.472;2023-05-19T05:44:22;10.60;82.38
72380;SHT30;60354;47.798;12.472;2023-05-19T05:46:49;10.47;83.31
72380;SHT30;60354;47.798;12.472;2023-05-19T05:49:15;10.64;82.23
72380;SHT30;60354;47.798;12.472;2023-05-19T05:51:43;10.91;81.83
72380;SHT30;60354;47.798;12.472;2023-05-19T05:54:11;11.14;80.80
72380;SHT30;60354;47.798;12.472;2023-05-19T05:56:41;11.40;79.10
72380;SHT30;60354;47.798;12.472;2023-05-19T05:59:07;11.86;78.18
72380;SHT30;60354;47.798;12.472;2023-05-19T06:01:33;12.15;75.90
72380;SHT30;60354;47.798;12.472;2023-05-19T06:03:59;12.17;75.33
72380;SHT30;60354;47.798;12.472;2023-05-19T06:06:25;11.97;76.77
72380;SHT30;60354;47.798;12.472;2023-05-19T06:08:51;11.91;77.15
72380;SHT30;60354;47.798;12.472;2023-05-19T06:11:17;12.11;77.05
72380;SHT30;60354;47.798;12.472;2023-05-19T06:13:44;12.45;77.01
72380;SHT30;60354;47.798;12.472;2023-05-19T06:16:16;12.90;74.80
72380;SHT30;60354;47.798;12.472;2023-05-19T06:18:44;12.97;74.62
72380;SHT30;60354;47.798;12.472;2023-05-19T06:21:09;12.95;73.78
72380;SHT30;60354;47.798;12.472;2023-05-19T06:23:38;13.40;74.55
72380;SHT30;60354;47.798;12.472;2023-05-19T06:26:06;13.55;74.14
72380;SHT30;60354;47.798;12.472;2023-05-19T06:28:32;13.62;73.14
72380;SHT30;60354;47.798;12.472;2023-05-19T06:30:58;13.99;72.03
72380;SHT30;60354;47.798;12.472;2023-05-19T06:33:47;14.32;71.38
72380;SHT30;60354;47.798;12.472;2023-05-19T06:36:14;13.85;72.19
72380;SHT30;60354;47.798;12.472;2023-05-19T06:38:42;13.92;72.71
72380;SHT30;60354;47.798;12.472;2023-05-19T06:41:07;13.24;73.84
72380;SHT30;60354;47.798;12.472;2023-05-19T06:43:33;13.16;74.54
72380;SHT30;60354;47.798;12.472;2023-05-19T06:46:02;13.00;75.16
72380;SHT30;60354;47.798;12.472;2023-05-19T06:48:30;12.79;75.57
72380;SHT30;60354;47.798;12.472;2023-05-19T06:50:56;13.18;74.75
72380;SHT30;60354;47.798;12.472;2023-05-19T06:53:23;13.68;73.28
72380;SHT30;60354;47.798;12.472;2023-05-19T06:55:50;13.55;73.63
72380;SHT30;60354;47.798;12.472;2023-05-19T06:58:19;12.90;75.40
72380;SHT30;60354;47.798;12.472;2023-05-19T07:00:44;12.60;76.31
72380;SHT30;60354;47.798;12.472;2023-05-19T07:03:13;13.06;75.37
72380;SHT30;60354;47.798;12.472;2023-05-19T07:05:39;13.31;74.70
72380;SHT30;60354;47.798;12.472;2023-05-19T07:08:04;13.35;73.94
72380;SHT30;60354;47.798;12.472;2023-05-19T07:10:31;13.58;73.55
72380;SHT30;60354;47.798;12.472;2023-05-19T07:12:56;13.20;73.90
72380;SHT30;60354;47.798;12.472;2023-05-19T07:15:25;13.50;74.21
72380;SHT30;60354;47.798;12.472;2023-05-19T07:17:52;13.41;73.29
72380;SHT30;60354;47.798;12.472;2023-05-19T07:20:17;13.81;72.58
72380;SHT30;60354;47.798;12.472;2023-05-19T07:22:43;13.89;72.08
72380;SHT30;60354;47.798;12.472;2023-05-19T07:25:09;13.98;71.88
72380;SHT30;60354;47.798;12.472;2023-05-19T07:27:34;13.62;72.55
72380;SHT30;60354;47.798;12.472;2023-05-19T07:30:00;13.58;72.94
72380;SHT30;60354;47.798;12.472;2023-05-19T07:32:26;14.23;73.24
72380;SHT30;60354;47.798;12.472;2023-05-19T07:34:51;14.36;72.03
72380;SHT30;60354;47.798;12.472;2023-05-19T07:37:17;14.13;72.31
72380;SHT30;60354;47.798;12.472;2023-05-19T07:39:42;14.27;71.96
72380;SHT30;60354;47.798;12.472;2023-05-19T07:42:08;13.69;73.71
72380;SHT30;60354;47.798;12.472;2023-05-19T07:44:33;13.71;73.56
72380;SHT30;60354;47.798;12.472;2023-05-19T07:46:59;13.34;74.10
72380;SHT30;60354;47.798;12.472;2023-05-19T07:49:25;13.08;74.83
72380;SHT30;60354;47.798;12.472;2023-05-19T07:51:51;13.28;75.18
72380;SHT30;60354;47.798;12.472;2023-05-19T07:54:17;13.33;74.12
72380;SHT30;60354;47.798;12.472;2023-05-19T07:56:42;13.54;74.42
72380;SHT30;60354;47.798;12.472;2023-05-19T07:59:08;13.26;74.85
72380;SHT30;60354;47.798;12.472;2023-05-19T08:01:34;13.45;74.83
72380;SHT30;60354;47.798;12.472;2023-05-19T08:03:59;13.58;74.75
72380;SHT30;60354;47.798;12.472;2023-05-19T08:06:25;13.66;74.38
72380;SHT30;60354;47.798;12.472;2023-05-19T08:08:50;13.57;73.60
72380;SHT30;60354;47.798;12.472;2023-05-19T08:11:16;13.61;74.15
72380;SHT30;60354;47.798;12.472;2023-05-19T08:13:42;13.51;74.77
72380;SHT30;60354;47.798;12.472;2023-05-19T08:16:07;13.55;74.73
72380;SHT30;60354;47.798;12.472;2023-05-19T08:18:33;13.55;74.44
72380;SHT30;60354;47.798;12.472;2023-05-19T08:20:58;13.31;74.33
72380;SHT30;60354;47.798;12.472;2023-05-19T08:23:24;13.53;73.12
72380;SHT30;60354;47.798;12.472;2023-05-19T08:25:49;13.85;72.95
72380;SHT30;60354;47.798;12.472;2023-05-19T08:28:15;13.92;72.88
72380;SHT30;60354;47.798;12.472;2023-05-19T08:30:41;13.88;72.82
72380;SHT30;60354;47.798;12.472;2023-05-19T08:33:06;13.94;72.89
72380;SHT30;60354;47.798;12.472;2023-05-19T08:35:32;13.88;73.94
72380;SHT30;60354;47.798;12.472;2023-05-19T08:37:58;13.78;74.23
72380;SHT30;60354;47.798;12.472;2023-05-19T08:40:24;13.45;73.26
72380;SHT30;60354;47.798;12.472;2023-05-19T08:42:51;13.24;74.17
72380;SHT30;60354;47.798;12.472;2023-05-19T08:45:18;13.34;74.49
72380;SHT30;60354;47.798;12.472;2023-05-19T08:47:47;13.48;73.81
72380;SHT30;60354;47.798;12.472;2023-05-19T08:50:22;13.68;72.95
72380;SHT30;60354;47.798;12.472;2023-05-19T08:52:57;13.71;73.12
72380;SHT30;60354;47.798;12.472;2023-05-19T08:55:43;13.58;73.88
72380;SHT30;60354;47.798;12.472;2023-05-19T08:58:11;13.55;72.95
72380;SHT30;60354;47.798;12.472;2023-05-19T09:00:37;13.79;73.39
72380;SHT30;60354;47.798;12.472;2023-05-19T09:03:04;13.78;72.54
72380;SHT30;60354;47.798;12.472;2023-05-19T09:05:30;13.69;71.99
72380;SHT30;60354;47.798;12.472;2023-05-19T09:07:56;13.78;72.94
72380;SHT30;60354;47.798;12.472;2023-05-19T09:10:22;13.89;72.71
72380;SHT30;60354;47.798;12.472;2023-05-19T09:12:47;13.78;74.07
72380;SHT30;60354;47.798;12.472;2023-05-19T09:15:17;13.69;73.84
72380;SHT30;60354;47.798;12.472;2023-05-19T09:17:45;13.76;73.77
72380;SHT30;60354;47.798;12.472;2023-05-19T09:20:12;13.71;73.44
72380;SHT30;60354;47.798;12.472;2023-05-19T09:22:45;13.88;74.18
72380;SHT30;60354;47.798;12.472;2023-05-19T09:25:24;13.94;73.62
72380;SHT30;60354;47.798;12.472;2023-05-19T09:27:50;13.95;73.01
72380;SHT30;60354;47.798;12.472;2023-05-19T09:30:18;13.90;72.25
72380;SHT30;60354;47.798;12.472;2023-05-19T09:32:44;13.89;72.62
72380;SHT30;60354;47.798;12.472;2023-05-19T09:35:11;13.82;73.91
72380;SHT30;60354;47.798;12.472;2023-05-19T09:37:41;13.76;74.48
72380;SHT30;60354;47.798;12.472;2023-05-19T09:40:08;13.62;74.56
72380;SHT30;60354;47.798;12.472;2023-05-19T09:42:37;13.78;74.27
72380;SHT30;60354;47.798;12.472;2023-05-19T09:45:03;14.15;72.02
72380;SHT30;60354;47.798;12.472;2023-05-19T09:47:37;14.40;72.31
72380;SHT30;60354;47.798;12.472;2023-05-19T09:50:09;14.43;71.12
72380;SHT30;60354;47.798;12.472;2023-05-19T09:52:42;14.56;71.54
72380;SHT30;60354;47.798;12.472;2023-05-19T09:55:11;14.74;69.57
72380;SHT30;60354;47.798;12.472;2023-05-19T09:57:38;14.74;71.87
72380;SHT30;60354;47.798;12.472;2023-05-19T10:00:08;14.64;70.55
72380;SHT30;60354;47.798;12.472;2023-05-19T10:02:45;14.59;71.12
72380;SHT30;60354;47.798;12.472;2023-05-19T10:05:12;14.30;72.46
72380;SHT30;60354;47.798;12.472;2023-05-19T10:07:42;14.20;71.65
72380;SHT30;60354;47.798;12.472;2023-05-19T10:10:11;14.32;71.52
72380;SHT30;60354;47.798;12.472;2023-05-19T10:12:38;14.26;71.67
72380;SHT30;60354;47.798;12.472;2023-05-19T10:15:10;14.27;71.39
72380;SHT30;60354;47.798;12.472;2023-05-19T10:17:40;14.23;71.89
72380;SHT30;60354;47.798;12.472;2023-05-19T10:20:15;14.56;72.94
72380;SHT30;60354;47.798;12.472;2023-05-19T10:22:43;14.40;71.02
72380;SHT30;60354;47.798;12.472;2023-05-19T10:25:11;14.70;70.95
72380;SHT30;60354;47.798;12.472;2023-05-19T10:28:04;14.80;71.12
72380;SHT30;60354;47.798;12.472;2023-05-19T10:30:33;14.84;71.40
72380;SHT30;60354;47.798;12.472;2023-05-19T10:33:00;14.64;72.15
72380;SHT30;60354;47.798;12.472;2023-05-19T10:38:15;14.46;72.36
72380;SHT30;60354;47.798;12.472;2023-05-19T10:46:03;14.09;73.06
72380;SHT30;60354;47.798;12.472;2023-05-19T10:48:33;14.12;73.84
72380;SHT30;60354;47.798;12.472;2023-05-19T10:51:00;14.17;72.85
72380;SHT30;60354;47.798;12.472;2023-05-19T10:53:32;14.30;72.40
72380;SHT30;60354;47.798;12.472;2023-05-19T10:56:02;14.36;72.84
72380;SHT30;60354;47.798;12.472;2023-05-19T11:01:18;14.36;72.41
72380;SHT30;60354;47.798;12.472;2023-05-19T11:03:53;14.26;73.45
72380;SHT30;60354;47.798;12.472;2023-05-19T11:06:28;14.19;73.47
72380;SHT30;60354;47.798;12.472;2023-05-19T11:09:09;14.02;72.92
72380;SHT30;60354;47.798;12.472;2023-05-19T11:14:19;13.79;73.96
72380;SHT30;60354;47.798;12.472;2023-05-19T11:16:46;13.90;74.79
72380;SHT30;60354;47.798;12.472;2023-05-19T11:19:25;13.92;73.98
72380;SHT30;60354;47.798;12.472;2023-05-19T11:21:52;13.94;74.22
72380;SHT30;60354;47.798;12.472;2023-05-19T11:24:55;13.83;73.92
72380;SHT30;60354;47.798;12.472;2023-05-19T11:29:51;13.85;73.84
72380;SHT30;60354;47.798;12.472;2023-05-19T11:32:19;13.86;73.76
72380;SHT30;60354;47.798;12.472;2023-05-19T11:34:47;13.88;73.76
72380;SHT30;60354;47.798;12.472;2023-05-19T11:37:13;13.78;74.46
72380;SHT30;60354;47.798;12.472;2023-05-19T11:39:39;13.76;74.67
72380;SHT30;60354;47.798;12.472;2023-05-19T11:42:05;13.79;74.71
72380;SHT30;60354;47.798;12.472;2023-05-19T11:44:30;13.82;74.91
72380;SHT30;60354;47.798;12.472;2023-05-19T11:46:58;13.96;74.63
72380;SHT30;60354;47.798;12.472;2023-05-19T11:49:24;14.19;74.93
72380;SHT30;60354;47.798;12.472;2023-05-19T11:51:49;14.44;73.61
72380;SHT30;60354;47.798;12.472;2023-05-19T11:54:15;14.57;72.85
72380;SHT30;60354;47.798;12.472;2023-05-19T11:56:41;14.71;71.65
72380;SHT30;60354;47.798;12.472;2023-05-19T11:59:07;14.76;72.40
72380;SHT30;60354;47.798;12.472;2023-05-19T12:01:34;14.64;72.20
72380;SHT30;60354;47.798;12.472;2023-05-19T12:04:00;14.50;72.97
72380;SHT30;60354;47.798;12.472;2023-05-19T12:06:26;14.32;73.33
72380;SHT30;60354;47.798;12.472;2023-05-19T12:08:55;14.15;73.03
72380;SHT30;60354;47.798;12.472;2023-05-19T12:11:22;14.08;74.20
72380;SHT30;60354;47.798;12.472;2023-05-19T12:13:48;14.08;73.93
72380;SHT30;60354;47.798;12.472;2023-05-19T12:16:19;14.08;74.41
72380;SHT30;60354;47.798;12.472;2023-05-19T12:18:44;14.16;74.20
72380;SHT30;60354;47.798;12.472;2023-05-19T12:21:10;14.02;74.13
72380;SHT30;60354;47.798;12.472;2023-05-19T12:23:36;14.04;74.40
72380;SHT30;60354;47.798;12.472;2023-05-19T12:26:02;14.02;74.01
72380;SHT30;60354;47.798;12.472;2023-05-19T12:28:29;13.98;73.97
72380;SHT30;60354;47.798;12.472;2023-05-19T12:30:58;14.12;74.79
72380;SHT30;60354;47.798;12.472;2023-05-19T12:33:24;14.22;74.56
72380;SHT30;60354;47.798;12.472;2023-05-19T12:35:50;14.33;73.78
72380;SHT30;60354;47.798;12.472;2023-05-19T12:38:15;14.40;73.31
72380;SHT30;60354;47.798;12.472;2023-05-19T12:40:43;14.32;73.30
72380;SHT30;60354;47.798;12.472;2023-05-19T12:43:19;14.48;74.04
72380;SHT30;60354;47.798;12.472;2023-05-19T12:45:46;14.23;72.81
72380;SHT30;60354;47.798;12.472;2023-05-19T12:48:12;14.19;74.43
72380;SHT30;60354;47.798;12.472;2023-05-19T12:50:40;14.13;74.80
72380;SHT30;60354;47.798;12.472;2023-05-19T12:53:13;14.44;75.48
72380;SHT30;60354;47.798;12.472;2023-05-19T12:55:40;14.56;75.59
72380;SHT30;60354;47.798;12.472;2023-05-19T12:58:07;14.50;75.04
72380;SHT30;60354;47.798;12.472;2023-05-19T13:00:32;14.56;75.97
72380;SHT30;60354;47.798;12.472;2023-05-19T13:03:07;14.51;74.36
72380;SHT30;60354;47.798;12.472;2023-05-19T13:05:38;14.68;74.31
72380;SHT30;60354;47.798;12.472;2023-05-19T13:08:08;14.80;74.55
72380;SHT30;60354;47.798;12.472;2023-05-19T13:10:35;15.01;73.41
72380;SHT30;60354;47.798;12.472;2023-05-19T13:13:02;14.97;72.63
72380;SHT30;60354;47.798;12.472;2023-05-19T13:15:30;14.92;71.37
72380;SHT30;60354;47.798;12.472;2023-05-19T13:17:59;15.35;71.24
72380;SHT30;60354;47.798;12.472;2023-05-19T13:20:25;15.62;69.60
72380;SHT30;60354;47.798;12.472;2023-05-19T13:22:50;15.76;70.28
72380;SHT30;60354;47.798;12.472;2023-05-19T13:25:16;15.82;69.94
72380;SHT30;60354;47.798;12.472;2023-05-19T13:27:43;15.69;70.58
72380;SHT30;60354;47.798;12.472;2023-05-19T13:30:10;15.77;70.49
72380;SHT30;60354;47.798;12.472;2023-05-19T13:32:36;15.71;71.21
72380;SHT30;60354;47.798;12.472;2023-05-19T13:35:02;15.59;72.29
72380;SHT30;60354;47.798;12.472;2023-05-19T13:37:28;15.73;72.78
72380;SHT30;60354;47.798;12.472;2023-05-19T13:39:54;15.85;72.45
72380;SHT30;60354;47.798;12.472;2023-05-19T13:42:19;15.74;72.13
72380;SHT30;60354;47.798;12.472;2023-05-19T13:44:45;15.98;70.58
72380;SHT30;60354;47.798;12.472;2023-05-19T13:47:11;15.86;71.31
72380;SHT30;60354;47.798;12.472;2023-05-19T13:49:37;15.70;71.45
72380;SHT30;60354;47.798;12.472;2023-05-19T13:52:03;15.71;71.38
72380;SHT30;60354;47.798;12.472;2023-05-19T13:54:30;15.63;72.35
72380;SHT30;60354;47.798;12.472;2023-05-19T13:56:56;15.71;71.57
72380;SHT30;60354;47.798;12.472;2023-05-19T13:59:24;15.94;71.51
72380;SHT30;60354;47.798;12.472;2023-05-19T14:01:49;15.82;71.37
72380;SHT30;60354;47.798;12.472;2023-05-19T14:04:17;15.98;71.61
72380;SHT30;60354;47.798;12.472;2023-05-19T14:06:43;15.96;71.26
72380;SHT30;60354;47.798;12.472;2023-05-19T14:09:09;16.07;71.29
72380;SHT30;60354;47.798;12.472;2023-05-19T14:11:35;16.01;71.84
72380;SHT30;60354;47.798;12.472;2023-05-19T14:14:00;15.76;72.53
72380;SHT30;60354;47.798;12.472;2023-05-19T14:16:28;15.69;72.53
72380;SHT30;60354;47.798;12.472;2023-05-19T14:18:54;15.53;72.25
72380;SHT30;60354;47.798;12.472;2023-05-19T14:21:20;15.67;71.93
72380;SHT30;60354;47.798;12.472;2023-05-19T14:23:45;15.90;71.28
72380;SHT30;60354;47.798;12.472;2023-05-19T14:26:11;15.97;71.77
72380;SHT30;60354;47.798;12.472;2023-05-19T14:28:37;15.94;70.91
72380;SHT30;60354;47.798;12.472;2023-05-19T14:31:10;15.93;70.99
72380;SHT30;60354;47.798;12.472;2023-05-19T14:33:36;15.98;71.76
72380;SHT30;60354;47.798;12.472;2023-05-19T14:36:01;16.03;71.46
72380;SHT30;60354;47.798;12.472;2023-05-19T14:38:27;16.10;70.17
72380;SHT30;60354;47.798;12.472;2023-05-19T14:40:52;16.32;70.52
72380;SHT30;60354;47.798;12.472;2023-05-19T14:43:18;16.28;70.17
72380;SHT30;60354;47.798;12.472;2023-05-19T14:45:43;16.31;69.60
72380;SHT30;60354;47.798;12.472;2023-05-19T14:48:09;16.41;70.00
72380;SHT30;60354;47.798;12.472;2023-05-19T14:50:37;16.32;71.10
72380;SHT30;60354;47.798;12.472;2023-05-19T14:53:03;16.32;69.89
72380;SHT30;60354;47.798;12.472;2023-05-19T14:55:29;16.40;70.37
72380;SHT30;60354;47.798;12.472;2023-05-19T14:57:54;16.29;69.40
72380;SHT30;60354;47.798;12.472;2023-05-19T15:00:20;16.17;70.85
72380;SHT30;60354;47.798;12.472;2023-05-19T15:02:45;16.37;70.94
72380;SHT30;60354;47.798;12.472;2023-05-19T15:05:11;16.42;70.73
72380;SHT30;60354;47.798;12.472;2023-05-19T15:07:36;16.44;70.81
72380;SHT30;60354;47.798;12.472;2023-05-19T15:10:02;16.37;71.91
72380;SHT30;60354;47.798;12.472;2023-05-19T15:12:28;16.38;71.28
72380;SHT30;60354;47.798;12.472;2023-05-19T15:14:54;16.42;71.67
72380;SHT30;60354;47.798;12.472;2023-05-19T15:17:20;16.52;70.49
72380;SHT30;60354;47.798;12.472;2023-05-19T15:19:46;16.34;70.71
72380;SHT30;60354;47.798;12.472;2023-05-19T15:22:11;16.41;69.83
72380;SHT30;60354;47.798;12.472;2023-05-19T15:24:37;16.48;71.65
72380;SHT30;60354;47.798;12.472;2023-05-19T15:27:02;16.42;71.10
72380;SHT30;60354;47.798;12.472;2023-05-19T15:29:28;16.37;70.98
72380;SHT30;60354;47.798;12.472;2023-05-19T15:31:54;16.44;71.05
72380;SHT30;60354;47.798;12.472;2023-05-19T15:34:20;16.41;72.01
72380;SHT30;60354;47.798;12.472;2023-05-19T15:36:45;16.37;70.58
72380;SHT30;60354;47.798;12.472;2023-05-19T15:39:11;16.38;70.53
72380;SHT30;60354;47.798;12.472;2023-05-19T15:41:37;16.29;71.33
72380;SHT30;60354;47.798;12.472;2023-05-19T15:44:03;16.35;70.80
72380;SHT30;60354;47.798;12.472;2023-05-19T15:46:28;16.34;71.13
72380;SHT30;60354;47.798;12.472;2023-05-19T15:48:54;16.40;71.11
72380;SHT30;60354;47.798;12.472;2023-05-19T15:51:20;16.34;70.75
72380;SHT30;60354;47.798;12.472;2023-05-19T15:53:46;16.37;72.01
72380;SHT30;60354;47.798;12.472;2023-05-19T15:56:12;16.29;71.23
72380;SHT30;60354;47.798;12.472;2023-05-19T15:58:40;16.29;71.55